Time;durP1;ratioP1;P1;durP2;ratioP2;P2;SDS_P1;SDS_P2;PMS_P1;PMS_P2;Temp;Humidity;BMP_temperature;BMP_pressure;BME280_temperature;BME280_humidity;BME280_pressure;Samples;Min_cycle;Max_cycle;Signal;HPM_P1;HPM_P2
2022/05/26 00:01:47;;;;;;;7.63;0.68;;;;;;;;;;5125481;27;20065;-39
2022/05/26 00:04:12;;;;;;;1.20;0.35;;;;;;;;;;5123956;27;20457;-41
2022/05/26 00:06:37;;;;;;;1.95;0.80;;;;;;;;;;5121787;27;20578;-40
2022/05/26 00:09:03;;;;;;;10.38;0.77;;;;;;;;;;5120720;27;20079;-44
2022/05/26 00:11:29;;;;;;;1.35;0.55;;;;;;;;;;5117565;27;20168;-45
2022/05/26 00:13:55;;;;;;;0.55;0.40;;;;;;;;;;5120423;27;20058;-45
2022/05/26 00:16:20;;;;;;;0.65;0.35;;;;;;;;;;5121140;27;20047;-44
2022/05/26 00:18:46;;;;;;;1.02;0.45;;;;;;;;;;5120271;27;20134;-43
2022/05/26 00:21:12;;;;;;;3.35;0.50;;;;;;;;;;5118815;27;20050;-43
2022/05/26 00:23:37;;;;;;;0.82;0.50;;;;;;;;;;5123008;27;20512;-46
2022/05/26 00:26:02;;;;;;;1.30;0.88;;;;;;;;;;5101448;27;20031;-45
2022/05/26 00:28:28;;;;;;;3.47;1.10;;;;;;;;;;5120459;27;20047;-44
2022/05/26 00:30:53;;;;;;;4.60;0.80;;;;;;;;;;5119203;27;20599;-41
2022/05/26 00:33:19;;;;;;;1.35;0.28;;;;;;;;;;5118606;27;20118;-42
2022/05/26 00:35:45;;;;;;;0.60;0.32;;;;;;;;;;5118508;27;20408;-45
2022/05/26 00:38:12;;;;;;;1.27;0.73;;;;;;;;;;5120055;27;20039;-41
2022/05/26 00:40:37;;;;;;;1.60;0.93;;;;;;;;;;5120330;27;20050;-40
2022/05/26 00:43:03;;;;;;;1.20;0.50;;;;;;;;;;5122067;27;20059;-43
2022/05/26 00:45:40;;;;;;;0.90;0.70;;;;;;;;;;5118160;27;20710;-42
2022/05/26 00:48:07;;;;;;;1.58;0.65;;;;;;;;;;5118994;27;20049;-43
2022/05/26 00:50:35;;;;;;;0.93;0.52;;;;;;;;;;5119288;27;20050;-39
2022/05/26 00:53:04;;;;;;;1.13;0.65;;;;;;;;;;5121194;27;20046;-42
2022/05/26 00:55:36;;;;;;;0.73;0.50;;;;;;;;;;5121136;27;20054;-44
2022/05/26 00:58:05;;;;;;;0.93;0.60;;;;;;;;;;5120076;27;20054;-40
2022/05/26 01:00:33;;;;;;;1.63;0.93;;;;;;;;;;5117525;27;20043;-40
2022/05/26 01:02:58;;;;;;;1.75;0.55;;;;;;;;;;5113830;27;20039;-44
2022/05/26 01:05:25;;;;;;;0.73;0.30;;;;;;;;;;5120387;27;20126;-39
2022/05/26 01:07:51;;;;;;;0.60;0.45;;;;;;;;;;5118493;27;20100;-41
2022/05/26 01:10:16;;;;;;;0.75;0.55;;;;;;;;;;5114050;27;20039;-40
2022/05/26 01:12:42;;;;;;;1.33;0.63;;;;;;;;;;5110770;27;20508;-38
2022/05/26 01:15:10;;;;;;;1.13;0.93;;;;;;;;;;5119499;27;20035;-38
2022/05/26 01:17:38;;;;;;;1.15;0.57;;;;;;;;;;5117066;27;20092;-38
2022/05/26 01:20:12;;;;;;;0.90;0.65;;;;;;;;;;5117088;27;20054;-39
2022/05/26 01:22:56;;;;;;;0.90;0.52;;;;;;;;;;5111989;27;20088;-41
2022/05/26 01:25:40;;;;;;;0.32;0.32;;;;;;;;;;5106894;27;20039;-37
2022/05/26 01:28:08;;;;;;;0.60;0.40;;;;;;;;;;5118699;27;20055;-40
2022/05/26 01:30:50;;;;;;;0.73;0.50;;;;;;;;;;5109661;27;20050;-44
2022/05/26 01:33:36;;;;;;;0.70;0.30;;;;;;;;;;5109425;27;20082;-40
2022/05/26 01:36:07;;;;;;;1.85;1.00;;;;;;;;;;5116951;27;20041;-42
2022/05/26 01:38:32;;;;;;;;;;;;;;;;;;5119528;27;20104;-41
2022/05/26 01:41:22;;;;;;;1.40;0.40;;;;;;;;;;5114691;27;19921;-47
2022/05/26 01:43:53;;;;;;;0.30;0.30;;;;;;;;;;5114370;27;20799;-40
2022/05/26 01:46:18;;;;;;;6.85;0.60;;;;;;;;;;5113334;27;20048;-39
2022/05/26 01:48:47;;;;;;;0.63;0.30;;;;;;;;;;5116124;27;20452;-45
2022/05/26 01:51:19;;;;;;;1.17;0.32;;;;;;;;;;5108660;27;20101;-43
2022/05/26 01:53:52;;;;;;;1.90;0.63;;;;;;;;;;5102493;27;20114;-40
2022/05/26 01:56:27;;;;;;;2.13;0.30;;;;;;;;;;5114401;27;20100;-42
2022/05/26 01:58:57;;;;;;;0.38;0.20;;;;;;;;;;5097901;27;20046;-44
2022/05/26 02:01:26;;;;;;;2.05;0.98;;;;;;;;;;5118683;27;20040;-40
2022/05/26 02:03:52;;;;;;;3.75;0.70;;;;;;;;;;5113692;27;20568;-42
2022/05/26 02:06:26;;;;;;;6.13;0.60;;;;;;;;;;5122092;27;20065;-41
2022/05/26 02:09:07;;;;;;;0.30;0.30;;;;;;;;;;5117708;27;20043;-40
2022/05/26 02:11:33;;;;;;;0.47;0.30;;;;;;;;;;5107528;27;20099;-44
2022/05/26 02:14:06;;;;;;;1.52;0.22;;;;;;;;;;5108578;27;20047;-40
2022/05/26 02:16:31;;;;;;;0.88;0.30;;;;;;;;;;5095702;28;20124;-44
2022/05/26 02:19:23;;;;;;;0.88;0.55;;;;;;;;;;5113764;27;20031;-42
2022/05/26 02:22:05;;;;;;;0.50;0.30;;;;;;;;;;5108826;27;20043;-41
2022/05/26 02:24:36;;;;;;;1.60;0.50;;;;;;;;;;5113588;27;20049;-43
2022/05/26 02:27:01;;;;;;;0.63;0.28;;;;;;;;;;5116618;27;20055;-40
2022/05/26 02:32:11;;;;;;;1.35;0.82;;;;;;;;;;5118741;27;20533;-42
2022/05/26 02:34:38;;;;;;;0.30;0.20;;;;;;;;;;5107493;27;20047;-42
2022/05/26 02:37:05;;;;;;;1.58;0.75;;;;;;;;;;5112676;27;20093;-42
2022/05/26 02:39:31;;;;;;;1.42;0.82;;;;;;;;;;5110811;27;20650;-41
2022/05/26 02:41:57;;;;;;;1.25;0.47;;;;;;;;;;5117373;27;20614;-40
2022/05/26 02:44:23;;;;;;;1.85;0.57;;;;;;;;;;5112683;27;20139;-43
2022/05/26 02:46:52;;;;;;;1.25;0.68;;;;;;;;;;5106386;28;20695;-39
2022/05/26 02:49:32;;;;;;;6.95;0.90;;;;;;;;;;5105258;27;20044;-40
2022/05/26 02:52:26;;;;;;;3.13;1.27;;;;;;;;;;5113749;27;20088;-41
2022/05/26 02:54:52;;;;;;;2.47;0.90;;;;;;;;;;5062014;28;20143;-41
2022/05/26 02:57:17;;;;;;;7.60;0.80;;;;;;;;;;5115913;28;20084;-40
2022/05/26 03:00:01;;;;;;;0.70;0.50;;;;;;;;;;5118522;28;20098;-44
2022/05/26 03:02:26;;;;;;;1.60;0.80;;;;;;;;;;5119786;28;20610;-42
2022/05/26 03:05:00;;;;;;;4.65;1.27;;;;;;;;;;5120192;28;20078;-44
2022/05/26 03:07:28;;;;;;;1.88;0.47;;;;;;;;;;5095957;28;20630;-44
2022/05/26 03:09:53;;;;;;;2.47;0.90;;;;;;;;;;5116809;28;20122;-41
2022/05/26 03:12:29;;;;;;;12.02;0.88;;;;;;;;;;5119883;28;20027;-44
2022/05/26 03:14:55;;;;;;;4.00;1.13;;;;;;;;;;5119914;28;20157;-42
2022/05/26 03:17:20;;;;;;;2.63;0.55;;;;;;;;;;5116320;28;20044;-40
2022/05/26 03:19:46;;;;;;;0.50;0.35;;;;;;;;;;5116333;28;20061;-41
2022/05/26 03:22:11;;;;;;;1.25;0.65;;;;;;;;;;5111228;27;20416;-40
2022/05/26 03:24:36;;;;;;;0.68;0.43;;;;;;;;;;5106425;27;20419;-41
2022/05/26 03:27:02;;;;;;;0.82;0.80;;;;;;;;;;5116724;27;20096;-39
2022/05/26 03:29:27;;;;;;;0.60;0.30;;;;;;;;;;5120156;27;20039;-42
2022/05/26 03:31:52;;;;;;;3.83;0.75;;;;;;;;;;5119409;27;20040;-42
2022/05/26 03:42:30;;;;;;;2.55;1.05;;;;;;;;;;5123669;27;20043;-41
2022/05/26 03:44:56;;;;;;;0.93;0.50;;;;;;;;;;5121971;27;20051;-42
2022/05/26 03:47:21;;;;;;;1.38;0.88;;;;;;;;;;5118391;27;20100;-42
2022/05/26 03:49:47;;;;;;;4.32;0.50;;;;;;;;;;5120242;27;20054;-41
2022/05/26 03:52:12;;;;;;;4.05;0.98;;;;;;;;;;5102328;27;20043;-42
2022/05/26 03:54:37;;;;;;;0.73;0.57;;;;;;;;;;5120694;27;21036;-44
2022/05/26 03:57:03;;;;;;;0.70;0.55;;;;;;;;;;5120773;27;20153;-42
2022/05/26 03:59:29;;;;;;;5.28;0.70;;;;;;;;;;5120537;27;20081;-40
2022/05/26 04:01:54;;;;;;;1.48;0.82;;;;;;;;;;5119435;27;20447;-41
2022/05/26 04:04:19;;;;;;;1.38;0.98;;;;;;;;;;5120248;27;20076;-41
2022/05/26 04:06:45;;;;;;;0.88;0.50;;;;;;;;;;5123149;27;20047;-40
2022/05/26 04:09:10;;;;;;;3.15;1.58;;;;;;;;;;5122456;27;20152;-42
2022/05/26 04:11:35;;;;;;;1.05;0.65;;;;;;;;;;5120329;27;20044;-39
2022/05/26 04:14:01;;;;;;;2.03;0.65;;;;;;;;;;5121374;27;20596;-42
2022/05/26 04:16:27;;;;;;;16.40;2.42;;;;;;;;;;5116635;27;20454;-40
2022/05/26 04:18:52;;;;;;;4.85;0.98;;;;;;;;;;5120524;27;20085;-40
2022/05/26 04:21:18;;;;;;;1.40;1.00;;;;;;;;;;5121489;27;20043;-39
2022/05/26 04:23:43;;;;;;;2.05;0.75;;;;;;;;;;5122008;27;20066;-43
2022/05/26 04:26:09;;;;;;;2.65;1.38;;;;;;;;;;5112789;27;20132;-44
2022/05/26 04:28:35;;;;;;;1.80;1.13;;;;;;;;;;5120728;27;20051;-42
2022/05/26 04:31:00;;;;;;;2.28;0.93;;;;;;;;;;5121418;27;20058;-45
2022/05/26 04:33:26;;;;;;;2.25;0.93;;;;;;;;;;5121925;27;20083;-42
2022/05/26 04:35:52;;;;;;;3.70;0.80;;;;;;;;;;5120865;27;20047;-42
2022/05/26 04:38:18;;;;;;;2.55;1.02;;;;;;;;;;5118210;27;20044;-38
2022/05/26 04:40:45;;;;;;;0.70;0.50;;;;;;;;;;5120639;27;20042;-43
2022/05/26 04:43:10;;;;;;;0.60;0.40;;;;;;;;;;5121507;27;20529;-42
2022/05/26 04:45:35;;;;;;;16.02;1.80;;;;;;;;;;5119743;27;20039;-41
2022/05/26 04:48:01;;;;;;;1.23;0.65;;;;;;;;;;5120346;27;20150;-46
2022/05/26 04:50:26;;;;;;;1.40;0.75;;;;;;;;;;5120813;27;20135;-44
2022/05/26 04:52:51;;;;;;;9.50;1.30;;;;;;;;;;5120605;27;20191;-46
2022/05/26 04:55:17;;;;;;;2.13;1.05;;;;;;;;;;5121018;27;20046;-40
2022/05/26 04:57:42;;;;;;;2.63;1.25;;;;;;;;;;5104111;27;20044;-40
2022/05/26 05:00:10;;;;;;;30.73;3.08;;;;;;;;;;5120178;27;20073;-40
2022/05/26 05:02:36;;;;;;;17.15;2.47;;;;;;;;;;5105871;27;20043;-44
2022/05/26 05:05:02;;;;;;;6.97;1.60;;;;;;;;;;5113507;27;20042;-43
2022/05/26 05:07:28;;;;;;;3.58;1.05;;;;;;;;;;5112779;27;20568;-40
2022/05/26 05:09:53;;;;;;;0.93;0.65;;;;;;;;;;5117329;27;20146;-45
2022/05/26 05:12:20;;;;;;;4.35;1.00;;;;;;;;;;5116882;27;20475;-41
2022/05/26 05:14:47;;;;;;;5.15;1.13;;;;;;;;;;5117051;27;20043;-43
2022/05/26 05:17:12;;;;;;;35.95;5.28;;;;;;;;;;5116529;27;20091;-45
2022/05/26 05:19:38;;;;;;;1.80;1.02;;;;;;;;;;5119875;27;20035;-42
2022/05/26 05:22:03;;;;;;;8.30;0.68;;;;;;;;;;5119334;27;20043;-44
2022/05/26 05:24:32;;;;;;;108.43;11.07;;;;;;;;;;5116710;27;20114;-44
2022/05/26 05:27:01;;;;;;;62.00;8.05;;;;;;;;;;5121076;27;20075;-44
2022/05/26 05:29:30;;;;;;;36.92;4.22;;;;;;;;;;5118982;27;20047;-43
2022/05/26 05:31:58;;;;;;;81.10;14.60;;;;;;;;;;5120165;27;20051;-39
2022/05/26 05:34:26;;;;;;;4.57;0.75;;;;;;;;;;5109258;27;20055;-42
2022/05/26 05:36:52;;;;;;;0.82;0.55;;;;;;;;;;5112242;27;20085;-41
2022/05/26 05:39:17;;;;;;;7.13;0.93;;;;;;;;;;5097906;27;20070;-41
2022/05/26 05:41:42;;;;;;;1.63;1.17;;;;;;;;;;5113508;27;20055;-40
2022/05/26 05:44:08;;;;;;;9.25;0.60;;;;;;;;;;5115916;27;20046;-42
2022/05/26 05:46:53;;;;;;;4.28;1.38;;;;;;;;;;5109487;27;20055;-40
2022/05/26 05:49:19;;;;;;;2.88;1.13;;;;;;;;;;5106991;27;20095;-41
2022/05/26 05:51:44;;;;;;;20.52;0.95;;;;;;;;;;5112168;27;20040;-45
2022/05/26 05:54:10;;;;;;;3.10;0.57;;;;;;;;;;5120977;27;20078;-42
2022/05/26 05:56:35;;;;;;;2.28;0.82;;;;;;;;;;5115809;27;20485;-41
2022/05/26 05:59:00;;;;;;;24.58;4.68;;;;;;;;;;5119276;27;20039;-42
2022/05/26 06:01:25;;;;;;;3.78;2.05;;;;;;;;;;5119340;27;20036;-43
2022/05/26 06:03:51;;;;;;;38.65;4.82;;;;;;;;;;5116484;27;20427;-41
2022/05/26 06:06:17;;;;;;;3.58;1.52;;;;;;;;;;5117571;27;20031;-45
2022/05/26 06:08:42;;;;;;;9.95;3.08;;;;;;;;;;5120501;27;20054;-46
2022/05/26 06:11:08;;;;;;;1.25;0.75;;;;;;;;;;5120151;27;20075;-42
2022/05/26 06:13:33;;;;;;;6.75;0.77;;;;;;;;;;5117488;27;20412;-40
2022/05/26 06:15:59;;;;;;;1.63;1.02;;;;;;;;;;5118449;27;20027;-43
2022/05/26 06:18:25;;;;;;;8.90;1.80;;;;;;;;;;5118699;27;20036;-46
2022/05/26 06:20:50;;;;;;;2.08;0.47;;;;;;;;;;5117371;27;20521;-39
2022/05/26 06:23:18;;;;;;;2.80;1.63;;;;;;;;;;5119382;27;20105;-39
2022/05/26 06:25:44;;;;;;;34.35;7.95;;;;;;;;;;5110543;27;20680;-39
2022/05/26 06:30:53;;;;;;;3.35;1.45;;;;;;;;;;5108945;27;20058;-40
2022/05/26 06:39:06;;;;;;;3.42;1.92;;;;;;;;;;5034595;28;20068;-60
2022/05/26 06:44:17;;;;;;;5.05;1.40;;;;;;;;;;5115158;27;20051;-60
2022/05/26 06:46:42;;;;;;;5.40;1.33;;;;;;;;;;5110826;27;20524;-60
2022/05/26 06:49:08;;;;;;;115.85;16.70;;;;;;;;;;5118247;27;20047;-60
2022/05/26 06:51:39;;;;;;;15.90;1.40;;;;;;;;;;5117056;27;20050;-61
2022/05/26 06:54:05;;;;;;;8.98;1.15;;;;;;;;;;5116335;28;20451;-62
2022/05/26 06:56:30;;;;;;;0.95;0.65;;;;;;;;;;5115871;28;20496;-60
2022/05/26 06:58:55;;;;;;;0.73;0.40;;;;;;;;;;5099436;28;20043;-62
2022/05/26 07:01:21;;;;;;;39.63;2.53;;;;;;;;;;5119677;27;20084;-62
2022/05/26 07:03:46;;;;;;;2.85;1.48;;;;;;;;;;5121894;27;20138;-55
2022/05/26 07:06:20;;;;;;;19.05;3.60;;;;;;;;;;5123251;27;20491;-61
2022/05/26 07:08:46;;;;;;;4.38;0.88;;;;;;;;;;5114147;27;20714;-60
2022/05/26 07:11:12;;;;;;;16.88;2.25;;;;;;;;;;5115278;27;20047;-61
2022/05/26 07:13:37;;;;;;;34.05;3.08;;;;;;;;;;5123481;27;20049;-60
2022/05/26 07:16:03;;;;;;;8.38;0.73;;;;;;;;;;5115661;27;20428;-60
2022/05/26 07:18:28;;;;;;;0.82;0.13;;;;;;;;;;5118677;27;20515;-60
2022/05/26 07:20:53;;;;;;;2.65;0.70;;;;;;;;;;5119251;27;20146;-60
2022/05/26 07:23:19;;;;;;;6.40;1.23;;;;;;;;;;5099232;27;20062;-59
2022/05/26 07:25:45;;;;;;;0.70;0.30;;;;;;;;;;5120477;27;20514;-60
2022/05/26 07:28:13;;;;;;;1.50;1.30;;;;;;;;;;5124066;27;20044;-60
2022/05/26 07:30:39;;;;;;;14.50;1.85;;;;;;;;;;5122739;27;20146;-60
2022/05/26 07:33:05;;;;;;;9.25;2.90;;;;;;;;;;5123854;27;20618;-60
2022/05/26 07:35:30;;;;;;;17.25;3.53;;;;;;;;;;5121056;27;20088;-60
2022/05/26 07:43:24;;;;;;;1.17;0.70;;;;;;;;;;5120901;27;20535;-61
2022/05/26 07:45:50;;;;;;;3.20;0.75;;;;;;;;;;5116728;27;20036;-60
2022/05/26 07:48:15;;;;;;;1.48;0.85;;;;;;;;;;5123459;27;20054;-60
2022/05/26 07:50:41;;;;;;;3.50;1.02;;;;;;;;;;5121127;27;20047;-62
2022/05/26 07:53:06;;;;;;;8.90;1.17;;;;;;;;;;5123369;27;20078;-60
2022/05/26 07:55:32;;;;;;;0.85;0.65;;;;;;;;;;5119814;27;20108;-60
2022/05/26 07:57:58;;;;;;;3.30;0.95;;;;;;;;;;5117133;27;20563;-59
2022/05/26 08:00:23;;;;;;;3.33;0.65;;;;;;;;;;5116838;27;20127;-59
2022/05/26 08:02:49;;;;;;;4.32;2.10;;;;;;;;;;5111666;27;20038;-60
2022/05/26 08:05:14;;;;;;;4.85;0.95;;;;;;;;;;5108886;27;20044;-60
2022/05/26 08:07:41;;;;;;;2.05;1.55;;;;;;;;;;5120143;27;20039;-59
2022/05/26 08:10:06;;;;;;;2.58;1.48;;;;;;;;;;5121179;27;20130;-60
2022/05/26 08:12:32;;;;;;;3.50;0.70;;;;;;;;;;5120316;27;20158;-60
2022/05/26 08:14:57;;;;;;;3.28;0.80;;;;;;;;;;5120801;27;20534;-60
2022/05/26 08:17:23;;;;;;;9.77;1.33;;;;;;;;;;5115775;27;20051;-59
2022/05/26 08:19:49;;;;;;;3.83;0.70;;;;;;;;;;5119957;27;20138;-59
2022/05/26 08:22:15;;;;;;;5.78;2.53;;;;;;;;;;5122275;27;20035;-59
2022/05/26 08:24:40;;;;;;;10.45;2.20;;;;;;;;;;5112165;27;20055;-59
2022/05/26 08:27:05;;;;;;;1.75;0.95;;;;;;;;;;5116741;27;20047;-59
2022/05/26 08:29:31;;;;;;;7.47;2.08;;;;;;;;;;5118183;27;20398;-60
2022/05/26 08:31:56;;;;;;;26.73;2.85;;;;;;;;;;5116642;27;20052;-60
2022/05/26 08:34:21;;;;;;;3.83;1.65;;;;;;;;;;5104341;27;20459;-59
2022/05/26 08:36:47;;;;;;;5.22;1.15;;;;;;;;;;5104133;27;20502;-60
2022/05/26 08:39:13;;;;;;;0.30;0.20;;;;;;;;;;5117574;27;20137;-60
2022/05/26 08:41:46;;;;;;;10.80;1.42;;;;;;;;;;5114537;27;20067;-60
2022/05/26 08:44:14;;;;;;;5.75;1.70;;;;;;;;;;5118110;27;20051;-59
2022/05/26 08:46:45;;;;;;;0.93;0.38;;;;;;;;;;5117876;27;20093;-59
2022/05/26 08:49:13;;;;;;;1.38;0.50;;;;;;;;;;5116446;27;20054;-59
2022/05/26 08:51:50;;;;;;;25.58;2.13;;;;;;;;;;5118214;27;20146;-59
2022/05/26 08:54:27;;;;;;;1.95;0.73;;;;;;;;;;5105437;27;20451;-59
2022/05/26 08:56:55;;;;;;;14.57;1.33;;;;;;;;;;5109388;27;20067;-59
2022/05/26 08:59:22;;;;;;;20.58;4.38;;;;;;;;;;5111145;27;20055;-60
2022/05/26 09:01:47;;;;;;;2.30;1.30;;;;;;;;;;5113436;27;20128;-60
2022/05/26 09:04:13;;;;;;;1.42;0.75;;;;;;;;;;5112425;27;20047;-59
2022/05/26 09:15:00;;;;;;;18.10;1.42;;;;;;;;;;5114916;27;20054;-59
2022/05/26 09:17:28;;;;;;;5.43;1.23;;;;;;;;;;5117528;27;20089;-60
2022/05/26 09:19:53;;;;;;;4.32;0.88;;;;;;;;;;5117821;27;20057;-60
2022/05/26 09:22:24;;;;;;;0.73;0.52;;;;;;;;;;5103591;27;20044;-60
2022/05/26 09:24:50;;;;;;;4.88;2.05;;;;;;;;;;5111110;27;20507;-60
2022/05/26 09:27:29;;;;;;;2.70;1.52;;;;;;;;;;5114832;27;20040;-60
2022/05/26 09:29:59;;;;;;;0.90;0.40;;;;;;;;;;5114642;27;20189;-60
2022/05/26 09:32:29;;;;;;;9.55;0.95;;;;;;;;;;5112312;27;20044;-59
2022/05/26 09:35:03;;;;;;;7.13;0.82;;;;;;;;;;5100225;27;20064;-61
2022/05/26 09:37:40;;;;;;;1.65;1.23;;;;;;;;;;5115155;27;20075;-60
2022/05/26 09:40:14;;;;;;;7.35;1.55;;;;;;;;;;5117171;27;20507;-60
2022/05/26 09:42:40;;;;;;;9.50;1.80;;;;;;;;;;5113218;27;20047;-60
2022/05/26 09:45:06;;;;;;;5.20;1.02;;;;;;;;;;5116604;27;20527;-60
2022/05/26 09:47:37;;;;;;;4.28;1.50;;;;;;;;;;5120999;27;20031;-60
2022/05/26 09:50:07;;;;;;;4.93;1.73;;;;;;;;;;5111663;27;20090;-60
2022/05/26 09:52:44;;;;;;;5.75;3.72;;;;;;;;;;5112241;27;20527;-60
2022/05/26 09:55:12;;;;;;;8.80;2.65;;;;;;;;;;5114616;27;20035;-59
2022/05/26 09:57:37;;;;;;;19.83;4.15;;;;;;;;;;5112270;27;20048;-60
2022/05/26 10:00:13;;;;;;;15.52;1.48;;;;;;;;;;5118269;27;20107;-61
2022/05/26 10:02:40;;;;;;;14.10;2.75;;;;;;;;;;5117186;27;20143;-61
2022/05/26 10:05:08;;;;;;;5.43;3.05;;;;;;;;;;5118401;27;20044;-60
2022/05/26 10:07:40;;;;;;;4.03;1.15;;;;;;;;;;5117258;27;20385;-60
2022/05/26 10:10:21;;;;;;;3.65;1.35;;;;;;;;;;5120137;27;20057;-60
2022/05/26 10:12:46;;;;;;;;;;;;;;;;;;5122159;27;20039;-60
2022/05/26 10:15:16;;;;;;;3.33;1.97;;;;;;;;;;5116482;27;20334;-60
2022/05/26 10:18:00;;;;;;;4.35;1.33;;;;;;;;;;5117356;27;20049;-60
2022/05/26 10:20:25;;;;;;;7.88;2.00;;;;;;;;;;5121538;27;20046;-61
2022/05/26 10:23:10;;;;;;;8.18;2.30;;;;;;;;;;5117856;27;20115;-60
2022/05/26 10:25:41;;;;;;;8.95;2.42;;;;;;;;;;5122163;27;20027;-59
2022/05/26 10:28:25;;;;;;;5.20;1.77;;;;;;;;;;5117287;27;20057;-59
2022/05/26 10:30:56;;;;;;;10.80;2.63;;;;;;;;;;5116714;27;20090;-59
2022/05/26 10:33:21;;;;;;;;;;;;;;;;;;5118845;27;20032;-59
2022/05/26 10:35:47;;;;;;;2.70;0.80;;;;;;;;;;5118247;27;19946;-59
2022/05/26 10:38:18;;;;;;;5.25;1.15;;;;;;;;;;5117050;27;20059;-59
2022/05/26 10:40:52;;;;;;;14.57;1.35;;;;;;;;;;5120616;27;20047;-58
2022/05/26 10:43:38;;;;;;;4.72;1.08;;;;;;;;;;5106297;27;20408;-58
2022/05/26 10:46:06;;;;;;;5.97;1.80;;;;;;;;;;5106755;27;20035;-58
2022/05/26 10:48:42;;;;;;;3.92;1.65;;;;;;;;;;5106004;27;20052;-58
2022/05/26 10:51:15;;;;;;;1.83;1.20;;;;;;;;;;5109925;27;20417;-59
2022/05/26 10:53:41;;;;;;;2.10;0.95;;;;;;;;;;5114669;27;20043;-59
2022/05/26 10:56:13;;;;;;;0.95;0.70;;;;;;;;;;5117988;28;20061;-58
2022/05/26 10:58:42;;;;;;;1.65;0.52;;;;;;;;;;5117469;28;20052;-58
2022/05/26 11:01:13;;;;;;;4.25;1.23;;;;;;;;;;5110061;27;20047;-59
2022/05/26 11:03:45;;;;;;;15.93;3.10;;;;;;;;;;5104875;28;20431;-59
2022/05/26 11:06:16;;;;;;;7.70;0.95;;;;;;;;;;5106639;28;20074;-58
2022/05/26 11:08:44;;;;;;;11.73;1.08;;;;;;;;;;5117378;28;20044;-58
2022/05/26 11:11:21;;;;;;;0.88;0.70;;;;;;;;;;5112966;27;20055;-59
2022/05/26 11:13:55;;;;;;;5.45;0.77;;;;;;;;;;5112546;27;20063;-58
2022/05/26 11:19:22;;;;;;;23.90;3.08;;;;;;;;;;5105727;27;20071;-59
2022/05/26 11:21:48;;;;;;;0.65;0.35;;;;;;;;;;5104281;28;20067;-58
2022/05/26 11:24:15;;;;;;;14.52;1.73;;;;;;;;;;5118855;28;20070;-58
2022/05/26 11:26:43;;;;;;;10.13;0.75;;;;;;;;;;5107905;27;20044;-58
2022/05/26 11:29:11;;;;;;;2.20;0.75;;;;;;;;;;5114350;27;20067;-58
2022/05/26 11:37:36;;;;;;;1.27;0.60;;;;;;;;;;5117951;28;20059;-61
2022/05/26 11:40:01;;;;;;;;;;;;;;;;;;5112279;27;20685;-61
2022/05/26 11:42:35;;;;;;;1.73;0.90;;;;;;;;;;5112758;28;20007;-60
2022/05/26 11:45:19;;;;;;;7.72;2.28;;;;;;;;;;5119997;28;20263;-61
2022/05/26 11:47:50;;;;;;;1.45;0.77;;;;;;;;;;5120339;27;20047;-61
2022/05/26 11:50:15;;;;;;;;;;;;;;;;;;5124784;27;20047;-61
2022/05/26 11:52:41;;;;;;;4.60;1.40;;;;;;;;;;5116923;27;19916;-61
2022/05/26 11:55:06;;;;;;;9.30;0.85;;;;;;;;;;5117378;27;20437;-61
2022/05/26 11:57:37;;;;;;;1.83;0.95;;;;;;;;;;5097938;27;20046;-61
2022/05/26 12:00:14;;;;;;;2.35;1.33;;;;;;;;;;5118283;27;20040;-61
2022/05/26 12:02:40;;;;;;;1.55;0.75;;;;;;;;;;5117220;27;20062;-61
2022/05/26 12:05:24;;;;;;;4.85;1.55;;;;;;;;;;5116905;27;20039;-61
2022/05/26 12:07:49;;;;;;;3.63;1.20;;;;;;;;;;5121675;27;20043;-60
2022/05/26 12:10:19;;;;;;;1.70;0.52;;;;;;;;;;5121697;27;20534;-61
2022/05/26 12:12:45;;;;;;;3.88;1.40;;;;;;;;;;5118841;27;20397;-61
2022/05/26 12:15:23;;;;;;;9.02;1.35;;;;;;;;;;5114069;27;20510;-61
2022/05/26 12:17:55;;;;;;;3.35;0.98;;;;;;;;;;5113903;27;20413;-61
2022/05/26 12:20:21;;;;;;;3.22;0.50;;;;;;;;;;5109477;27;20122;-61
2022/05/26 12:22:49;;;;;;;1.50;0.52;;;;;;;;;;5108627;27;20574;-61
2022/05/26 12:25:23;;;;;;;9.20;2.53;;;;;;;;;;5122064;27;20501;-61
2022/05/26 12:27:49;;;;;;;2.53;1.27;;;;;;;;;;5120844;27;20039;-61
2022/05/26 12:30:29;;;;;;;2.25;1.15;;;;;;;;;;5118030;27;20658;-61
2022/05/26 12:32:55;;;;;;;3.63;0.85;;;;;;;;;;5110833;27;20047;-60
2022/05/26 12:35:23;;;;;;;2.60;0.63;;;;;;;;;;5117252;27;20465;-62
2022/05/26 12:37:57;;;;;;;0.35;0.35;;;;;;;;;;5114994;27;20129;-61
2022/05/26 12:40:28;;;;;;;2.38;0.93;;;;;;;;;;5119076;27;20039;-62
2022/05/26 12:42:53;;;;;;;1.67;0.93;;;;;;;;;;5116787;27;20090;-62
2022/05/26 12:45:29;;;;;;;7.95;0.95;;;;;;;;;;5112173;27;20511;-61
2022/05/26 12:47:54;;;;;;;1.30;0.55;;;;;;;;;;5119481;27;20621;-61
2022/05/26 12:50:21;;;;;;;6.47;1.38;;;;;;;;;;5118389;27;20055;-61
2022/05/26 12:52:49;;;;;;;2.40;0.57;;;;;;;;;;5119969;27;20035;-62
2022/05/26 12:55:18;;;;;;;6.63;1.20;;;;;;;;;;5120252;27;20138;-61
2022/05/26 12:57:48;;;;;;;1.15;0.57;;;;;;;;;;5121484;27;20039;-62
2022/05/26 13:00:25;;;;;;;7.43;1.70;;;;;;;;;;5114195;27;20416;-61
2022/05/26 13:02:59;;;;;;;2.38;0.75;;;;;;;;;;5119786;27;20051;-61
2022/05/26 13:05:26;;;;;;;3.08;0.70;;;;;;;;;;5110184;27;20124;-61
2022/05/26 13:07:53;;;;;;;4.60;0.80;;;;;;;;;;5120155;27;20043;-61
2022/05/26 13:10:23;;;;;;;3.05;1.05;;;;;;;;;;5120728;27;20054;-62
2022/05/26 13:12:48;;;;;;;0.30;0.28;;;;;;;;;;5119455;27;20077;-62
2022/05/26 13:15:19;;;;;;;2.05;0.55;;;;;;;;;;5121003;27;20404;-62
2022/05/26 13:17:47;;;;;;;0.82;0.50;;;;;;;;;;5121869;27;20488;-62
2022/05/26 13:20:21;;;;;;;1.92;0.88;;;;;;;;;;5119297;27;20047;-62
2022/05/26 13:22:46;;;;;;;3.33;0.30;;;;;;;;;;5119757;27;20082;-62
2022/05/26 13:25:15;;;;;;;5.28;0.85;;;;;;;;;;5121390;27;20088;-61
2022/05/26 13:27:51;;;;;;;0.93;0.40;;;;;;;;;;5117065;27;20035;-62
2022/05/26 13:33:11;;;;;;;8.57;0.50;;;;;;;;;;5118705;27;20042;-61
2022/05/26 13:35:44;;;;;;;1.42;0.93;;;;;;;;;;5114530;27;20052;-62
2022/05/26 13:38:22;;;;;;;1.90;0.88;;;;;;;;;;5111634;27;20042;-61
2022/05/26 13:40:47;;;;;;;2.10;0.57;;;;;;;;;;5118948;27;20047;-62
2022/05/26 13:43:14;;;;;;;7.97;0.95;;;;;;;;;;5122203;27;20585;-61
2022/05/26 13:45:42;;;;;;;3.95;1.27;;;;;;;;;;5120207;27;20054;-62
2022/05/26 13:48:25;;;;;;;0.35;0.30;;;;;;;;;;5116735;27;20130;-62
2022/05/26 13:50:53;;;;;;;5.90;1.83;;;;;;;;;;5118900;27;20055;-62
2022/05/26 13:53:19;;;;;;;1.25;0.60;;;;;;;;;;5121240;27;20054;-61
2022/05/26 13:55:45;;;;;;;2.25;0.52;;;;;;;;;;5116609;27;20039;-61
2022/05/26 13:58:10;;;;;;;8.85;1.60;;;;;;;;;;5121549;27;20100;-61
2022/05/26 14:00:37;;;;;;;3.72;0.57;;;;;;;;;;5115306;27;20027;-61
2022/05/26 14:03:06;;;;;;;8.63;1.73;;;;;;;;;;5105047;27;20089;-61
2022/05/26 14:05:33;;;;;;;6.20;0.82;;;;;;;;;;5111744;27;20040;-61
2022/05/26 14:07:58;;;;;;;10.23;0.75;;;;;;;;;;5107721;27;20051;-61
2022/05/26 14:10:36;;;;;;;5.00;0.95;;;;;;;;;;5103307;27;20421;-61
2022/05/26 14:13:07;;;;;;;11.52;0.60;;;;;;;;;;5108678;27;20051;-61
2022/05/26 14:15:40;;;;;;;15.80;2.50;;;;;;;;;;5111605;27;20192;-62
2022/05/26 14:18:07;;;;;;;1.92;1.20;;;;;;;;;;5110811;27;20499;-62
2022/05/26 14:20:32;;;;;;;3.00;1.20;;;;;;;;;;5118289;27;20046;-62
2022/05/26 14:22:58;;;;;;;2.80;0.57;;;;;;;;;;5117379;27;20039;-63
2022/05/26 14:25:25;;;;;;;4.18;1.33;;;;;;;;;;5119614;27;20598;-61
2022/05/26 14:27:52;;;;;;;0.30;0.25;;;;;;;;;;5114302;27;20068;-62
2022/05/26 14:30:27;;;;;;;18.85;1.13;;;;;;;;;;5115228;27;20039;-61
2022/05/26 14:32:53;;;;;;;3.60;0.43;;;;;;;;;;5107658;27;20035;-62
2022/05/26 14:35:18;;;;;;;3.53;0.50;;;;;;;;;;5118925;27;20555;-62
2022/05/26 14:37:44;;;;;;;25.13;2.40;;;;;;;;;;5118941;27;20417;-62
2022/05/26 14:40:10;;;;;;;2.05;1.10;;;;;;;;;;5115833;27;20048;-61
2022/05/26 14:42:36;;;;;;;0.45;0.30;;;;;;;;;;5116083;27;20040;-62
2022/05/26 14:45:03;;;;;;;1.08;0.82;;;;;;;;;;5119396;27;20939;-62
2022/05/26 14:47:28;;;;;;;3.10;0.65;;;;;;;;;;5114627;27;20048;-62
2022/05/26 14:49:53;;;;;;;0.63;0.45;;;;;;;;;;5118779;27;20046;-62
2022/05/26 14:52:20;;;;;;;28.27;5.32;;;;;;;;;;5118358;27;20055;-63
2022/05/26 14:57:31;;;;;;;0.50;0.32;;;;;;;;;;5118417;28;20180;-62
2022/05/26 14:59:57;;;;;;;0.98;0.40;;;;;;;;;;5117420;28;20177;-62
2022/05/26 15:02:23;;;;;;;5.32;0.70;;;;;;;;;;5113638;28;20110;-62
2022/05/26 15:04:48;;;;;;;3.35;0.70;;;;;;;;;;5106197;28;20054;-61
2022/05/26 15:07:14;;;;;;;1.73;0.98;;;;;;;;;;5106934;28;20126;-62
2022/05/26 15:09:40;;;;;;;3.50;1.05;;;;;;;;;;5119275;28;20051;-62
2022/05/26 15:12:07;;;;;;;1.25;0.22;;;;;;;;;;5116371;28;20043;-62
2022/05/26 15:14:33;;;;;;;5.45;1.05;;;;;;;;;;5111129;27;20496;-62
2022/05/26 15:17:00;;;;;;;6.25;1.17;;;;;;;;;;5103799;28;20185;-62
2022/05/26 15:19:29;;;;;;;1.10;0.60;;;;;;;;;;5105034;27;20055;-62
2022/05/26 15:21:57;;;;;;;0.22;0.20;;;;;;;;;;5109566;27;20468;-62
2022/05/26 15:24:23;;;;;;;0.55;0.30;;;;;;;;;;5112384;27;20051;-62
2022/05/26 15:26:49;;;;;;;1.05;0.22;;;;;;;;;;5109961;27;20080;-61
2022/05/26 15:29:14;;;;;;;1.88;0.77;;;;;;;;;;5122004;27;20083;-61
2022/05/26 15:31:40;;;;;;;2.03;0.57;;;;;;;;;;5123371;27;20195;-62
2022/05/26 15:34:06;;;;;;;1.67;0.95;;;;;;;;;;5122034;27;20043;-62
2022/05/26 15:36:31;;;;;;;9.32;1.15;;;;;;;;;;5124517;27;20353;-62
2022/05/26 15:38:58;;;;;;;4.38;1.63;;;;;;;;;;5121195;27;20487;-62
2022/05/26 15:41:24;;;;;;;0.77;0.22;;;;;;;;;;5120039;27;20054;-62